SKRH/RCH METAR and TAF weather

Enter ICAO airport designator
Station Type Date Time Source
SKRH METAR 2020/08/10 18:00 UTC NOAA

SKRH 101800Z 12020KT 9999 FEW020 SCT200 37/22 A2979


Station Type Date Time Source
SKRH Decoded METAR 2020/08/10 18:00 UTC NOAA

Riohacha / Almirante Padilla, Colombia (SKRH) 11-32N 072-56W 4M
Aug 10, 2020 - 02:00 PM EDT / 2020.08.10 1800 UTC
Wind: from the ESE (120 degrees) at 23 MPH (20 KT):0
Visibility: greater than 7 mile(s):0
Sky conditions: partly cloudy
Temperature: 98 F (37 C)
Heat index: 106.3 F (41.3 C):1
Dew Point: 71 F (22 C)
Relative Humidity: 42%
Pressure (altimeter): 29.79 in. Hg (1008 hPa)
ob: SKRH 101800Z 12020KT 9999 FEW020 SCT200 37/22 A2979
cycle: 18

Station Type Date Time Source
SKRH TAF 2015/07/31 18:51 UTC NOAA

TAF SKRH 311700Z 3118/0118 07010KT 9999 SCT017
TEMPO 3120/0103 09015KT CAVOK
TEMPO 0109/0114 9000 BKN015 TX36/3118Z TN28/0110Z

Example: see airport list